sensor_id;sensor_type;location;lat;lon;timestamp;pressure;altitude;pressure_sealevel;temperature;humidity
4022;BME280;2025;48.260;16.432;2023-04-09T00:00:29;100539.72;;;3.96;87.34
4022;BME280;2025;48.260;16.432;2023-04-09T00:02:56;100537.56;;;3.90;87.52
4022;BME280;2025;48.260;16.432;2023-04-09T00:05:23;100541.22;;;3.87;87.41
4022;BME280;2025;48.260;16.432;2023-04-09T00:07:50;100536.41;;;3.81;88.17
4022;BME280;2025;48.260;16.432;2023-04-09T00:10:18;100541.31;;;3.86;87.88
4022;BME280;2025;48.260;16.432;2023-04-09T00:12:45;100536.81;;;3.88;87.14
4022;BME280;2025;48.260;16.432;2023-04-09T00:15:12;100534.31;;;3.86;87.50
4022;BME280;2025;48.260;16.432;2023-04-09T00:17:39;100537.13;;;3.83;87.54
4022;BME280;2025;48.260;16.432;2023-04-09T00:20:07;100537.88;;;3.85;87.78
4022;BME280;2025;48.260;16.432;2023-04-09T00:22:34;100539.84;;;3.82;87.99
4022;BME280;2025;48.260;16.432;2023-04-09T00:25:01;100542.66;;;3.78;88.31
4022;BME280;2025;48.260;16.432;2023-04-09T00:27:30;100538.06;;;3.82;88.02
4022;BME280;2025;48.260;16.432;2023-04-09T00:29:57;100535.69;;;3.79;88.22
4022;BME280;2025;48.260;16.432;2023-04-09T00:32:24;100536.63;;;3.78;87.98
4022;BME280;2025;48.260;16.432;2023-04-09T00:34:51;100530.47;;;3.79;88.52
4022;BME280;2025;48.260;16.432;2023-04-09T00:37:18;100533.72;;;3.83;88.37
4022;BME280;2025;48.260;16.432;2023-04-09T00:39:45;100538.06;;;3.82;88.10
4022;BME280;2025;48.260;16.432;2023-04-09T00:42:12;100536.31;;;3.83;88.21
4022;BME280;2025;48.260;16.432;2023-04-09T00:44:40;100534.84;;;3.78;88.23
4022;BME280;2025;48.260;16.432;2023-04-09T00:47:07;100541.63;;;3.81;88.16
4022;BME280;2025;48.260;16.432;2023-04-09T00:49:34;100535.59;;;3.80;88.14
4022;BME280;2025;48.260;16.432;2023-04-09T00:52:01;100529.63;;;3.78;88.58
4022;BME280;2025;48.260;16.432;2023-04-09T00:54:28;100531.53;;;3.76;88.73
4022;BME280;2025;48.260;16.432;2023-04-09T00:56:56;100531.53;;;3.76;88.39
4022;BME280;2025;48.260;16.432;2023-04-09T00:59:23;100527.97;;;3.77;88.83
4022;BME280;2025;48.260;16.432;2023-04-09T01:01:52;100535.13;;;3.87;87.99
4022;BME280;2025;48.260;16.432;2023-04-09T01:04:19;100531.84;;;3.85;88.44
4022;BME280;2025;48.260;16.432;2023-04-09T01:06:50;100533.91;;;3.79;88.40
4022;BME280;2025;48.260;16.432;2023-04-09T01:09:23;100527.88;;;3.79;87.96
4022;BME280;2025;48.260;16.432;2023-04-09T01:12:01;100532.03;;;3.82;87.71
4022;BME280;2025;48.260;16.432;2023-04-09T01:14:36;100533.06;;;3.79;88.00
4022;BME280;2025;48.260;16.432;2023-04-09T01:17:21;100532.66;;;3.72;88.66
4022;BME280;2025;48.260;16.432;2023-04-09T01:19:57;100533.81;;;3.68;88.94
4022;BME280;2025;48.260;16.432;2023-04-09T01:22:40;100530.38;;;3.68;88.74
4022;BME280;2025;48.260;16.432;2023-04-09T01:25:18;100530.38;;;3.68;88.81
4022;BME280;2025;48.260;16.432;2023-04-09T01:28:06;100528.72;;;3.67;89.24
4022;BME280;2025;48.260;16.432;2023-04-09T01:30:35;100527.03;;;3.66;88.75
4022;BME280;2025;48.260;16.432;2023-04-09T01:33:04;100527.25;;;3.63;89.02
4022;BME280;2025;48.260;16.432;2023-04-09T01:35:31;100526.44;;;3.62;89.16
4022;BME280;2025;48.260;16.432;2023-04-09T01:37:59;100519.75;;;3.58;89.25
4022;BME280;2025;48.260;16.432;2023-04-09T01:40:28;100519.84;;;3.56;89.69
4022;BME280;2025;48.260;16.432;2023-04-09T01:42:56;100518.28;;;3.54;89.87
4022;BME280;2025;48.260;16.432;2023-04-09T01:45:25;100525.19;;;3.55;89.65
4022;BME280;2025;48.260;16.432;2023-04-09T01:47:54;100527.66;;;3.56;89.37
4022;BME280;2025;48.260;16.432;2023-04-09T01:50:22;100531.31;;;3.54;89.37
4022;BME280;2025;48.260;16.432;2023-04-09T01:52:49;100525.91;;;3.57;90.12
4022;BME280;2025;48.260;16.432;2023-04-09T01:55:17;100512.91;;;3.57;89.60
4022;BME280;2025;48.260;16.432;2023-04-09T01:57:44;100510.91;;;3.48;89.37
4022;BME280;2025;48.260;16.432;2023-04-09T02:00:12;100518.72;;;3.48;89.51
4022;BME280;2025;48.260;16.432;2023-04-09T02:02:45;100519.78;;;3.45;89.27
4022;BME280;2025;48.260;16.432;2023-04-09T02:05:14;100527.28;;;3.50;89.66
4022;BME280;2025;48.260;16.432;2023-04-09T02:07:46;100527.06;;;3.53;89.36
4022;BME280;2025;48.260;16.432;2023-04-09T02:10:17;100528.94;;;3.51;89.31
4022;BME280;2025;48.260;16.432;2023-04-09T02:12:48;100521.22;;;3.49;89.60
4022;BME280;2025;48.260;16.432;2023-04-09T02:15:17;100519.13;;;3.42;89.32
4022;BME280;2025;48.260;16.432;2023-04-09T02:17:46;100518.00;;;3.33;89.13
4022;BME280;2025;48.260;16.432;2023-04-09T02:20:15;100518.50;;;3.25;90.05
4022;BME280;2025;48.260;16.432;2023-04-09T02:22:43;100519.25;;;3.27;89.85
4022;BME280;2025;48.260;16.432;2023-04-09T02:25:10;100521.22;;;3.49;89.10
4022;BME280;2025;48.260;16.432;2023-04-09T02:27:37;100524.75;;;3.61;88.29
4022;BME280;2025;48.260;16.432;2023-04-09T02:30:05;100526.66;;;3.46;88.71
4022;BME280;2025;48.260;16.432;2023-04-09T02:32:32;100521.00;;;3.40;88.92
4022;BME280;2025;48.260;16.432;2023-04-09T02:35:00;100527.56;;;3.32;88.88
4022;BME280;2025;48.260;16.432;2023-04-09T02:37:27;100530.72;;;3.25;89.05
4022;BME280;2025;48.260;16.432;2023-04-09T02:39:54;100532.78;;;3.32;88.92
4022;BME280;2025;48.260;16.432;2023-04-09T02:42:21;100529.75;;;3.26;88.82
4022;BME280;2025;48.260;16.432;2023-04-09T02:44:48;100528.81;;;3.14;88.92
4022;BME280;2025;48.260;16.432;2023-04-09T02:47:16;100530.16;;;3.07;89.05
4022;BME280;2025;48.260;16.432;2023-04-09T02:49:43;100547.03;;;3.01;89.15
4022;BME280;2025;48.260;16.432;2023-04-09T02:52:11;100535.22;;;2.95;89.14
4022;BME280;2025;48.260;16.432;2023-04-09T02:54:38;100531.72;;;2.97;89.34
4022;BME280;2025;48.260;16.432;2023-04-09T02:57:05;100530.44;;;2.89;89.38
4022;BME280;2025;48.260;16.432;2023-04-09T02:59:32;100541.03;;;2.86;89.63
4022;BME280;2025;48.260;16.432;2023-04-09T03:02:00;100533.53;;;2.82;89.45
4022;BME280;2025;48.260;16.432;2023-04-09T03:04:27;100533.97;;;2.76;89.55
4022;BME280;2025;48.260;16.432;2023-04-09T03:06:54;100530.41;;;2.77;89.79
4022;BME280;2025;48.260;16.432;2023-04-09T03:09:22;100533.75;;;2.79;89.95
4022;BME280;2025;48.260;16.432;2023-04-09T03:11:49;100533.66;;;2.80;89.53
4022;BME280;2025;48.260;16.432;2023-04-09T03:14:16;100529.50;;;2.78;89.66
4022;BME280;2025;48.260;16.432;2023-04-09T03:16:43;100529.56;;;2.76;90.11
4022;BME280;2025;48.260;16.432;2023-04-09T03:19:10;100533.66;;;2.80;90.13
4022;BME280;2025;48.260;16.432;2023-04-09T03:21:37;100529.91;;;2.84;90.16
4022;BME280;2025;48.260;16.432;2023-04-09T03:24:04;100528.78;;;2.88;89.87
4022;BME280;2025;48.260;16.432;2023-04-09T03:26:33;100527.44;;;2.95;89.60
4022;BME280;2025;48.260;16.432;2023-04-09T03:29:02;100531.19;;;3.04;89.69
4022;BME280;2025;48.260;16.432;2023-04-09T03:31:29;100534.44;;;3.08;89.45
4022;BME280;2025;48.260;16.432;2023-04-09T03:33:56;100535.38;;;3.07;89.63
4022;BME280;2025;48.260;16.432;2023-04-09T03:36:23;100532.97;;;3.04;89.92
4022;BME280;2025;48.260;16.432;2023-04-09T03:38:52;100541.81;;;3.01;89.78
4022;BME280;2025;48.260;16.432;2023-04-09T03:41:19;100537.44;;;3.02;89.82
4022;BME280;2025;48.260;16.432;2023-04-09T03:43:47;100540.78;;;3.04;89.99
4022;BME280;2025;48.260;16.432;2023-04-09T03:46:15;100541.41;;;3.07;90.29
4022;BME280;2025;48.260;16.432;2023-04-09T03:48:43;100536.63;;;3.14;89.65
4022;BME280;2025;48.260;16.432;2023-04-09T03:51:11;100535.16;;;3.10;89.98
4022;BME280;2025;48.260;16.432;2023-04-09T03:53:38;100536.31;;;3.06;90.42
4022;BME280;2025;48.260;16.432;2023-04-09T03:56:05;100534.44;;;3.08;90.68
4022;BME280;2025;48.260;16.432;2023-04-09T03:58:33;100534.00;;;3.14;90.31
4022;BME280;2025;48.260;16.432;2023-04-09T04:01:01;100539.97;;;3.16;90.22
4022;BME280;2025;48.260;16.432;2023-04-09T04:03:28;100545.69;;;3.21;90.25
4022;BME280;2025;48.260;16.432;2023-04-09T04:05:59;100536.34;;;3.31;89.56
4022;BME280;2025;48.260;16.432;2023-04-09T04:08:26;100547.88;;;3.27;89.54
4022;BME280;2025;48.260;16.432;2023-04-09T04:10:53;100554.56;;;3.31;90.13
4022;BME280;2025;48.260;16.432;2023-04-09T04:13:20;100548.41;;;3.32;89.43
4022;BME280;2025;48.260;16.432;2023-04-09T04:15:47;100548.09;;;3.37;89.51
4022;BME280;2025;48.260;16.432;2023-04-09T04:18:15;100563.72;;;3.37;89.20
4022;BME280;2025;48.260;16.432;2023-04-09T04:20:42;100555.19;;;3.35;89.48
4022;BME280;2025;48.260;16.432;2023-04-09T04:23:09;100557.91;;;3.33;89.48
4022;BME280;2025;48.260;16.432;2023-04-09T04:25:39;100553.31;;;3.37;89.47
4022;BME280;2025;48.260;16.432;2023-04-09T04:28:07;100561.94;;;3.37;89.33
4022;BME280;2025;48.260;16.432;2023-04-09T04:30:34;100559.75;;;3.44;89.36
4022;BME280;2025;48.260;16.432;2023-04-09T04:33:01;100561.03;;;3.38;89.89
4022;BME280;2025;48.260;16.432;2023-04-09T04:35:29;100560.81;;;3.42;89.78
4022;BME280;2025;48.260;16.432;2023-04-09T04:37:56;100568.72;;;3.40;89.60
4022;BME280;2025;48.260;16.432;2023-04-09T04:40:23;100571.25;;;3.54;89.47
4022;BME280;2025;48.260;16.432;2023-04-09T04:42:50;100573.09;;;3.65;88.39
4022;BME280;2025;48.260;16.432;2023-04-09T04:45:17;100572.81;;;3.57;88.74
4022;BME280;2025;48.260;16.432;2023-04-09T04:47:44;100571.03;;;3.57;88.59
4022;BME280;2025;48.260;16.432;2023-04-09T04:50:11;100576.75;;;3.63;88.50
4022;BME280;2025;48.260;16.432;2023-04-09T04:52:39;100577.88;;;3.58;88.70
4022;BME280;2025;48.260;16.432;2023-04-09T04:55:07;100583.09;;;3.58;88.92
4022;BME280;2025;48.260;16.432;2023-04-09T04:57:34;100579.97;;;3.53;89.11
4022;BME280;2025;48.260;16.432;2023-04-09T05:00:00;100578.75;;;3.59;88.96
4022;BME280;2025;48.260;16.432;2023-04-09T05:02:27;100580.81;;;3.67;88.83
4022;BME280;2025;48.260;16.432;2023-04-09T05:04:54;100579.88;;;3.68;88.46
4022;BME280;2025;48.260;16.432;2023-04-09T05:07:21;100588.41;;;3.70;88.34
4022;BME280;2025;48.260;16.432;2023-04-09T05:09:50;100589.06;;;3.73;88.36
4022;BME280;2025;48.260;16.432;2023-04-09T05:12:17;100586.22;;;3.76;87.88
4022;BME280;2025;48.260;16.432;2023-04-09T05:14:44;100584.25;;;3.80;87.89
4022;BME280;2025;48.260;16.432;2023-04-09T05:17:11;100586.31;;;3.75;88.12
4022;BME280;2025;48.260;16.432;2023-04-09T05:19:38;100591.53;;;3.75;88.66
4022;BME280;2025;48.260;16.432;2023-04-09T05:22:05;100588.19;;;3.73;89.09
4022;BME280;2025;48.260;16.432;2023-04-09T05:24:32;100593.09;;;3.77;88.76
4022;BME280;2025;48.260;16.432;2023-04-09T05:27:00;100600.81;;;3.79;88.66
4022;BME280;2025;48.260;16.432;2023-04-09T05:29:27;100596.75;;;3.88;88.44
4022;BME280;2025;48.260;16.432;2023-04-09T05:31:54;100593.72;;;3.94;87.98
4022;BME280;2025;48.260;16.432;2023-04-09T05:34:21;100591.97;;;3.94;87.74
4022;BME280;2025;48.260;16.432;2023-04-09T05:36:48;100586.00;;;3.92;87.84
4022;BME280;2025;48.260;16.432;2023-04-09T05:39:15;100592.47;;;3.99;87.89
4022;BME280;2025;48.260;16.432;2023-04-09T05:41:42;100598.41;;;4.01;87.92
4022;BME280;2025;48.260;16.432;2023-04-09T05:44:10;100605.09;;;4.06;88.10
4022;BME280;2025;48.260;16.432;2023-04-09T05:46:37;100600.16;;;4.14;86.90
4022;BME280;2025;48.260;16.432;2023-04-09T05:49:04;100604.00;;;4.21;86.91
4022;BME280;2025;48.260;16.432;2023-04-09T05:51:32;100617.34;;;4.29;86.79
4022;BME280;2025;48.260;16.432;2023-04-09T05:53:59;100611.59;;;4.24;87.01
4022;BME280;2025;48.260;16.432;2023-04-09T05:56:26;100611.91;;;4.32;87.21
4022;BME280;2025;48.260;16.432;2023-04-09T05:58:53;100614.41;;;4.34;86.24
4022;BME280;2025;48.260;16.432;2023-04-09T06:01:22;100613.47;;;4.35;85.88
4022;BME280;2025;48.260;16.432;2023-04-09T06:03:48;100620.88;;;4.41;85.66
4022;BME280;2025;48.260;16.432;2023-04-09T06:06:15;100608.56;;;4.43;85.66
4022;BME280;2025;48.260;16.432;2023-04-09T06:08:43;100619.72;;;4.32;85.14
4022;BME280;2025;48.260;16.432;2023-04-09T06:11:10;100618.28;;;4.28;85.71
4022;BME280;2025;48.260;16.432;2023-04-09T06:13:37;100626.41;;;4.36;84.85
4022;BME280;2025;48.260;16.432;2023-04-09T06:16:05;100620.13;;;4.39;85.45
4022;BME280;2025;48.260;16.432;2023-04-09T06:18:34;100624.13;;;4.32;85.45
4022;BME280;2025;48.260;16.432;2023-04-09T06:21:02;100625.44;;;4.37;85.36
4022;BME280;2025;48.260;16.432;2023-04-09T06:23:29;100623.25;;;4.44;84.93
4022;BME280;2025;48.260;16.432;2023-04-09T06:25:56;100632.03;;;4.43;84.86
4022;BME280;2025;48.260;16.432;2023-04-09T06:28:23;100627.31;;;4.48;84.77
4022;BME280;2025;48.260;16.432;2023-04-09T06:30:50;100625.91;;;4.31;85.29
4022;BME280;2025;48.260;16.432;2023-04-09T06:33:18;100624.53;;;4.38;85.44
4022;BME280;2025;48.260;16.432;2023-04-09T06:35:47;100623.75;;;4.49;84.84
4022;BME280;2025;48.260;16.432;2023-04-09T06:38:14;100623.94;;;4.59;85.35
4022;BME280;2025;48.260;16.432;2023-04-09T06:40:41;100631.50;;;4.75;85.49
4022;BME280;2025;48.260;16.432;2023-04-09T06:43:08;100630.00;;;5.07;85.71
4022;BME280;2025;48.260;16.432;2023-04-09T06:45:36;100626.59;;;5.18;83.33
4022;BME280;2025;48.260;16.432;2023-04-09T06:48:03;100633.75;;;5.27;82.03
4022;BME280;2025;48.260;16.432;2023-04-09T06:50:31;100626.56;;;5.42;83.49
4022;BME280;2025;48.260;16.432;2023-04-09T06:52:59;100623.72;;;5.57;81.84
4022;BME280;2025;48.260;16.432;2023-04-09T06:55:26;100631.16;;;5.74;82.51
4022;BME280;2025;48.260;16.432;2023-04-09T06:57:53;100634.75;;;5.96;81.91
4022;BME280;2025;48.260;16.432;2023-04-09T07:00:21;100628.34;;;6.11;79.09
4022;BME280;2025;48.260;16.432;2023-04-09T07:02:48;100635.00;;;6.04;79.05
4022;BME280;2025;48.260;16.432;2023-04-09T07:05:15;100639.25;;;5.94;80.07
4022;BME280;2025;48.260;16.432;2023-04-09T07:07:42;100640.94;;;5.95;79.88
4022;BME280;2025;48.260;16.432;2023-04-09T07:10:11;100640.72;;;5.98;79.11
4022;BME280;2025;48.260;16.432;2023-04-09T07:12:38;100646.31;;;6.04;80.63
4022;BME280;2025;48.260;16.432;2023-04-09T07:15:06;100649.03;;;6.03;81.42
4022;BME280;2025;48.260;16.432;2023-04-09T07:17:33;100648.03;;;5.93;78.45
4022;BME280;2025;48.260;16.432;2023-04-09T07:20:00;100645.94;;;5.98;79.56
4022;BME280;2025;48.260;16.432;2023-04-09T07:22:28;100658.28;;;5.96;79.63
4022;BME280;2025;48.260;16.432;2023-04-09T07:24:55;100648.03;;;5.93;78.25
4022;BME280;2025;48.260;16.432;2023-04-09T07:27:25;100655.59;;;5.73;79.20
4022;BME280;2025;48.260;16.432;2023-04-09T07:29:54;100664.22;;;5.51;80.02
4022;BME280;2025;48.260;16.432;2023-04-09T07:32:21;100658.38;;;5.47;80.13
4022;BME280;2025;48.260;16.432;2023-04-09T07:34:50;100662.75;;;5.36;80.46
4022;BME280;2025;48.260;16.432;2023-04-09T07:37:18;100669.19;;;5.43;81.55
4022;BME280;2025;48.260;16.432;2023-04-09T07:39:45;100669.34;;;5.53;79.43
4022;BME280;2025;48.260;16.432;2023-04-09T07:42:12;100661.72;;;5.49;80.19
4022;BME280;2025;48.260;16.432;2023-04-09T07:44:41;100664.47;;;5.59;79.26
4022;BME280;2025;48.260;16.432;2023-04-09T07:47:08;100674.00;;;5.60;78.76
4022;BME280;2025;48.260;16.432;2023-04-09T07:49:36;100662.38;;;5.64;78.70
4022;BME280;2025;48.260;16.432;2023-04-09T07:52:04;100672.50;;;5.69;80.17
4022;BME280;2025;48.260;16.432;2023-04-09T07:54:32;100669.63;;;5.72;79.42
4022;BME280;2025;48.260;16.432;2023-04-09T07:56:59;100671.09;;;5.87;79.63
4022;BME280;2025;48.260;16.432;2023-04-09T07:59:27;100679.47;;;6.04;78.58
4022;BME280;2025;48.260;16.432;2023-04-09T08:01:56;100671.97;;;6.10;78.96
4022;BME280;2025;48.260;16.432;2023-04-09T08:04:23;100677.69;;;6.16;79.00
4022;BME280;2025;48.260;16.432;2023-04-09T08:06:51;100675.56;;;6.21;78.53
4022;BME280;2025;48.260;16.432;2023-04-09T08:09:18;100682.34;;;6.35;78.87
4022;BME280;2025;48.260;16.432;2023-04-09T08:11:46;100677.09;;;6.46;79.00
4022;BME280;2025;48.260;16.432;2023-04-09T08:14:14;100672.19;;;6.52;78.63
4022;BME280;2025;48.260;16.432;2023-04-09T08:16:42;100675.66;;;6.53;77.59
4022;BME280;2025;48.260;16.432;2023-04-09T08:19:12;100675.97;;;6.82;76.96
4022;BME280;2025;48.260;16.432;2023-04-09T08:21:39;100667.34;;;7.03;75.46
4022;BME280;2025;48.260;16.432;2023-04-09T08:24:08;100678.63;;;7.14;73.84
4022;BME280;2025;48.260;16.432;2023-04-09T08:26:36;100677.03;;;7.23;73.85
4022;BME280;2025;48.260;16.432;2023-04-09T08:29:03;100683.81;;;7.26;73.14
4022;BME280;2025;48.260;16.432;2023-04-09T08:31:30;100692.75;;;7.23;72.79
4022;BME280;2025;48.260;16.432;2023-04-09T08:33:57;100683.81;;;7.26;73.08
4022;BME280;2025;48.260;16.432;2023-04-09T08:36:25;100686.31;;;7.27;72.88
4022;BME280;2025;48.260;16.432;2023-04-09T08:38:52;100693.63;;;7.45;72.37
4022;BME280;2025;48.260;16.432;2023-04-09T08:41:21;100695.13;;;7.58;70.87
4022;BME280;2025;48.260;16.432;2023-04-09T08:43:49;100695.19;;;7.68;68.87
4022;BME280;2025;48.260;16.432;2023-04-09T08:46:17;100692.81;;;7.65;70.05
4022;BME280;2025;48.260;16.432;2023-04-09T08:48:45;100689.94;;;7.68;69.70
4022;BME280;2025;48.260;16.432;2023-04-09T08:51:13;100691.84;;;7.66;70.39
4022;BME280;2025;48.260;16.432;2023-04-09T08:53:43;100698.25;;;7.73;70.15
4022;BME280;2025;48.260;16.432;2023-04-09T08:56:12;100691.72;;;7.89;69.71
4022;BME280;2025;48.260;16.432;2023-04-09T08:58:41;100694.84;;;7.82;68.12
4022;BME280;2025;48.260;16.432;2023-04-09T09:01:20;100696.06;;;7.57;70.46
4022;BME280;2025;48.260;16.432;2023-04-09T09:03:55;100694.53;;;7.55;70.36
4022;BME280;2025;48.260;16.432;2023-04-09T09:06:24;100699.84;;;7.44;71.76
4022;BME280;2025;48.260;16.432;2023-04-09T09:09:04;100702.03;;;7.27;71.34
4022;BME280;2025;48.260;16.432;2023-04-09T09:11:32;100696.03;;;7.36;71.69
4022;BME280;2025;48.260;16.432;2023-04-09T09:14:00;100702.97;;;7.58;73.05
4022;BME280;2025;48.260;16.432;2023-04-09T09:16:28;100703.53;;;7.83;73.14
4022;BME280;2025;48.260;16.432;2023-04-09T09:18:56;100698.31;;;7.83;71.70
4022;BME280;2025;48.260;16.432;2023-04-09T09:21:23;100699.66;;;7.98;71.33
4022;BME280;2025;48.260;16.432;2023-04-09T09:23:50;100700.06;;;8.24;71.65
4022;BME280;2025;48.260;16.432;2023-04-09T09:26:20;100696.19;;;8.50;68.79
4022;BME280;2025;48.260;16.432;2023-04-09T09:28:49;100691.69;;;8.71;66.80
4022;BME280;2025;48.260;16.432;2023-04-09T09:31:17;100697.38;;;8.76;65.63
4022;BME280;2025;48.260;16.432;2023-04-09T09:33:45;100696.97;;;8.81;66.45
4022;BME280;2025;48.260;16.432;2023-04-09T09:36:13;100695.19;;;8.20;66.86
4022;BME280;2025;48.260;16.432;2023-04-09T09:38:51;100689.53;;;7.94;68.17
4022;BME280;2025;48.260;16.432;2023-04-09T09:41:20;100692.56;;;7.89;68.43
4022;BME280;2025;48.260;16.432;2023-04-09T09:43:47;100695.97;;;8.11;66.93
4022;BME280;2025;48.260;16.432;2023-04-09T09:46:15;100687.59;;;8.17;67.14
4022;BME280;2025;48.260;16.432;2023-04-09T09:48:43;100694.44;;;8.08;69.99
4022;BME280;2025;48.260;16.432;2023-04-09T09:51:11;100685.31;;;8.33;68.24
4022;BME280;2025;48.260;16.432;2023-04-09T09:53:42;100683.38;;;8.56;66.77
4022;BME280;2025;48.260;16.432;2023-04-09T09:56:13;100680.16;;;8.53;66.27
4022;BME280;2025;48.260;16.432;2023-04-09T09:58:44;100677.53;;;8.53;66.72
4022;BME280;2025;48.260;16.432;2023-04-09T10:01:16;100682.25;;;8.49;67.65
4022;BME280;2025;48.260;16.432;2023-04-09T10:03:46;100677.53;;;8.53;67.21
4022;BME280;2025;48.260;16.432;2023-04-09T10:06:15;100686.59;;;8.70;66.86
4022;BME280;2025;48.260;16.432;2023-04-09T10:08:43;100687.44;;;8.90;65.85
4022;BME280;2025;48.260;16.432;2023-04-09T10:11:11;100676.53;;;9.04;63.59
4022;BME280;2025;48.260;16.432;2023-04-09T10:13:42;100673.81;;;9.35;63.17
4022;BME280;2025;48.260;16.432;2023-04-09T10:16:12;100669.78;;;9.40;62.49
4022;BME280;2025;48.260;16.432;2023-04-09T10:18:39;100671.72;;;9.48;62.93
4022;BME280;2025;48.260;16.432;2023-04-09T10:21:13;100672.53;;;9.39;66.49
4022;BME280;2025;48.260;16.432;2023-04-09T10:23:41;100663.41;;;9.04;63.67
4022;BME280;2025;48.260;16.432;2023-04-09T10:26:10;100667.28;;;9.39;65.42
4022;BME280;2025;48.260;16.432;2023-04-09T10:28:37;100660.75;;;9.82;65.90
4022;BME280;2025;48.260;16.432;2023-04-09T10:31:06;100667.41;;;10.13;64.55
4022;BME280;2025;48.260;16.432;2023-04-09T10:33:35;100666.28;;;10.36;61.48
4022;BME280;2025;48.260;16.432;2023-04-09T10:36:05;100663.22;;;10.58;59.06
4022;BME280;2025;48.260;16.432;2023-04-09T10:38:33;100654.56;;;10.48;61.45
4022;BME280;2025;48.260;16.432;2023-04-09T10:41:14;100652.84;;;10.57;59.07
4022;BME280;2025;48.260;16.432;2023-04-09T10:43:46;100652.84;;;10.57;58.49
4022;BME280;2025;48.260;16.432;2023-04-09T10:46:28;100654.41;;;10.49;58.23
4022;BME280;2025;48.260;16.432;2023-04-09T10:49:09;100651.09;;;10.47;58.50
4022;BME280;2025;48.260;16.432;2023-04-09T10:51:36;100644.97;;;10.57;58.54
4022;BME280;2025;48.260;16.432;2023-04-09T10:54:04;100641.34;;;10.58;57.12
4022;BME280;2025;48.260;16.432;2023-04-09T10:56:32;100643.34;;;10.46;56.17
4022;BME280;2025;48.260;16.432;2023-04-09T10:58:59;100644.03;;;10.48;58.08
4022;BME280;2025;48.260;16.432;2023-04-09T11:01:27;100648.53;;;10.38;62.63
4022;BME280;2025;48.260;16.432;2023-04-09T11:04:07;100649.72;;;10.06;59.02
4022;BME280;2025;48.260;16.432;2023-04-09T11:06:37;100644.47;;;9.29;61.00
4022;BME280;2025;48.260;16.432;2023-04-09T11:09:06;100645.84;;;9.34;61.56
4022;BME280;2025;48.260;16.432;2023-04-09T11:11:33;100651.25;;;9.42;60.55
4022;BME280;2025;48.260;16.432;2023-04-09T11:14:01;100658.84;;;9.45;61.05
4022;BME280;2025;48.260;16.432;2023-04-09T11:16:30;100653.44;;;9.56;60.21
4022;BME280;2025;48.260;16.432;2023-04-09T11:18:57;100648.31;;;9.55;60.72
4022;BME280;2025;48.260;16.432;2023-04-09T11:21:26;100644.19;;;9.33;61.22
4022;BME280;2025;48.260;16.432;2023-04-09T11:23:53;100636.84;;;9.36;62.71
4022;BME280;2025;48.260;16.432;2023-04-09T11:26:23;100644.28;;;9.60;60.97
4022;BME280;2025;48.260;16.432;2023-04-09T11:28:55;100639.28;;;9.77;62.08
4022;BME280;2025;48.260;16.432;2023-04-09T11:31:26;100643.25;;;9.90;60.74
4022;BME280;2025;48.260;16.432;2023-04-09T11:33:55;100637.69;;;10.03;59.49
4022;BME280;2025;48.260;16.432;2023-04-09T11:36:22;100638.94;;;9.99;61.71
4022;BME280;2025;48.260;16.432;2023-04-09T11:38:51;100639.75;;;10.00;56.06
4022;BME280;2025;48.260;16.432;2023-04-09T11:41:32;100641.16;;;9.94;56.68
4022;BME280;2025;48.260;16.432;2023-04-09T11:44:01;100638.94;;;9.99;56.31
4022;BME280;2025;48.260;16.432;2023-04-09T11:46:29;100633.16;;;10.33;54.44
4022;BME280;2025;48.260;16.432;2023-04-09T11:48:58;100636.53;;;10.16;53.52
4022;BME280;2025;48.260;16.432;2023-04-09T11:51:26;100633.41;;;10.40;56.59
4022;BME280;2025;48.260;16.432;2023-04-09T11:53:55;100630.13;;;10.55;56.58
4022;BME280;2025;48.260;16.432;2023-04-09T11:56:22;100633.09;;;10.88;61.02
4022;BME280;2025;48.260;16.432;2023-04-09T11:58:49;100633.09;;;11.24;56.03
4022;BME280;2025;48.260;16.432;2023-04-09T12:01:16;100632.88;;;11.17;52.75
4022;BME280;2025;48.260;16.432;2023-04-09T12:03:43;100636.41;;;11.26;54.29
4022;BME280;2025;48.260;16.432;2023-04-09T12:06:12;100633.38;;;11.21;54.47
4022;BME280;2025;48.260;16.432;2023-04-09T12:08:39;100634.00;;;11.15;53.42
4022;BME280;2025;48.260;16.432;2023-04-09T12:11:10;100632.06;;;10.99;54.09
4022;BME280;2025;48.260;16.432;2023-04-09T12:13:37;100627.88;;;10.79;54.13
4022;BME280;2025;48.260;16.432;2023-04-09T12:16:07;100634.03;;;10.51;55.11
4022;BME280;2025;48.260;16.432;2023-04-09T12:18:35;100639.09;;;10.25;55.56
4022;BME280;2025;48.260;16.432;2023-04-09T12:21:02;100634.38;;;10.39;55.15
4022;BME280;2025;48.260;16.432;2023-04-09T12:23:30;100641.75;;;10.35;56.00
4022;BME280;2025;48.260;16.432;2023-04-09T12:25:58;100642.53;;;10.45;54.96
4022;BME280;2025;48.260;16.432;2023-04-09T12:28:27;100634.94;;;10.32;55.95
4022;BME280;2025;48.260;16.432;2023-04-09T12:30:54;100633.88;;;10.16;55.83
4022;BME280;2025;48.260;16.432;2023-04-09T12:33:21;100636.91;;;10.21;57.05
4022;BME280;2025;48.260;16.432;2023-04-09T12:35:48;100634.75;;;10.06;55.91
4022;BME280;2025;48.260;16.432;2023-04-09T12:38:15;100637.56;;;9.95;57.27
4022;BME280;2025;48.260;16.432;2023-04-09T12:40:43;100633.66;;;9.99;55.43
4022;BME280;2025;48.260;16.432;2023-04-09T12:43:13;100636.06;;;9.83;56.50
4022;BME280;2025;48.260;16.432;2023-04-09T12:45:40;100629.50;;;9.59;56.57
4022;BME280;2025;48.260;16.432;2023-04-09T12:48:07;100625.06;;;9.60;56.49
4022;BME280;2025;48.260;16.432;2023-04-09T12:50:34;100631.56;;;9.65;56.58
4022;BME280;2025;48.260;16.432;2023-04-09T12:53:01;100630.06;;;9.63;56.58
4022;BME280;2025;48.260;16.432;2023-04-09T12:55:27;100628.41;;;9.52;56.38
4022;BME280;2025;48.260;16.432;2023-04-09T12:57:56;100625.66;;;9.34;56.91
4022;BME280;2025;48.260;16.432;2023-04-09T13:00:23;100624.81;;;9.34;57.98
4022;BME280;2025;48.260;16.432;2023-04-09T13:02:55;100631.03;;;9.42;57.91
4022;BME280;2025;48.260;16.432;2023-04-09T13:05:22;100632.97;;;9.40;58.05
4022;BME280;2025;48.260;16.432;2023-04-09T13:07:49;100620.38;;;9.44;57.92
4022;BME280;2025;48.260;16.432;2023-04-09T13:10:16;100626.03;;;9.39;56.08
4022;BME280;2025;48.260;16.432;2023-04-09T13:12:43;100627.88;;;9.29;57.20
4022;BME280;2025;48.260;16.432;2023-04-09T13:15:11;100617.91;;;9.33;56.82